Time;durP1;ratioP1;P1;durP2;ratioP2;P2;SDS_P1;SDS_P2;PMS_P1;PMS_P2;Temp;Humidity;BMP_temperature;BMP_pressure;BME280_temperature;BME280_humidity;BME280_pressure;Samples;Min_cycle;Max_cycle;Signal;HPM_P1;HPM_P2
2023/08/03 00:01:43;;;;;;;;;4.25;2.00;;;;;;;;5098734;27;45806;-41
2023/08/03 00:04:08;;;;;;;;;2.75;2.75;;;;;;;;5099044;27;45229;-41
2023/08/03 00:06:33;;;;;;;;;2.00;2.00;;;;;;;;5098290;27;45284;-41
2023/08/03 00:08:58;;;;;;;;;6.00;1.25;;;;;;;;5098178;27;45195;-40
2023/08/03 00:11:23;;;;;;;;;2.75;1.50;;;;;;;;5098351;27;45371;-41
2023/08/03 00:13:49;;;;;;;;;6.00;2.75;;;;;;;;5098476;27;45430;-40
2023/08/03 00:16:14;;;;;;;;;1.50;1.50;;;;;;;;5097504;27;46802;-41
2023/08/03 00:18:39;;;;;;;;;4.50;1.00;;;;;;;;5097696;27;45364;-41
2023/08/03 00:21:04;;;;;;;;;4.75;2.25;;;;;;;;5098409;27;45383;-41
2023/08/03 00:23:30;;;;;;;;;1.00;1.00;;;;;;;;5098629;27;45261;-41
2023/08/03 00:25:55;;;;;;;;;2.50;1.25;;;;;;;;5097935;27;46149;-41
2023/08/03 00:28:22;;;;;;;;;2.50;1.00;;;;;;;;5098223;27;45358;-50
2023/08/03 00:30:47;;;;;;;;;2.00;2.00;;;;;;;;5098283;27;45375;-42
2023/08/03 00:33:12;;;;;;;;;3.25;2.00;;;;;;;;5098167;27;45418;-41
2023/08/03 00:35:37;;;;;;;;;4.00;2.00;;;;;;;;5097517;27;47560;-41
2023/08/03 00:38:03;;;;;;;;;5.50;1.75;;;;;;;;5098275;27;45468;-41
2023/08/03 00:40:28;;;;;;;;;2.50;2.00;;;;;;;;5079746;27;45341;-41
2023/08/03 00:42:53;;;;;;;;;8.00;3.00;;;;;;;;5098181;27;45435;-41
2023/08/03 00:45:18;;;;;;;;;2.00;2.00;;;;;;;;5098043;27;46283;-41
2023/08/03 00:47:43;;;;;;;;;4.75;1.50;;;;;;;;5097672;27;45448;-41
2023/08/03 00:50:09;;;;;;;;;6.00;2.00;;;;;;;;5098102;27;45334;-41
2023/08/03 00:52:34;;;;;;;;;3.50;2.50;;;;;;;;5098296;27;45366;-42
2023/08/03 00:54:59;;;;;;;;;6.75;3.00;;;;;;;;5097794;27;45493;-40
2023/08/03 00:57:25;;;;;;;;;4.00;2.75;;;;;;;;5097790;27;45341;-42
2023/08/03 00:59:50;;;;;;;;;3.75;1.75;;;;;;;;5097830;27;45370;-41
2023/08/03 01:02:15;;;;;;;;;3.75;2.75;;;;;;;;5097896;27;45456;-41
2023/08/03 01:04:40;;;;;;;;;3.25;1.00;;;;;;;;5097876;27;46337;-43
2023/08/03 01:07:06;;;;;;;;;3.50;2.00;;;;;;;;5098505;27;45420;-45
2023/08/03 01:09:31;;;;;;;;;1.00;1.00;;;;;;;;5099290;27;45468;-44
2023/08/03 01:11:56;;;;;;;;;0.75;0.75;;;;;;;;5097741;27;45523;-42
2023/08/03 01:14:21;;;;;;;;;2.00;2.00;;;;;;;;5097289;27;45370;-41
2023/08/03 01:16:46;;;;;;;;;3.00;1.00;;;;;;;;5097363;27;45242;-41
2023/08/03 01:19:12;;;;;;;;;1.75;0.75;;;;;;;;5097623;27;45834;-41
2023/08/03 01:21:39;;;;;;;;;5.00;2.25;;;;;;;;5097604;27;45272;-41
2023/08/03 01:24:04;;;;;;;;;7.25;2.00;;;;;;;;5097343;27;45367;-40
2023/08/03 01:26:29;;;;;;;;;7.00;3.00;;;;;;;;5097240;27;45169;-41
2023/08/03 01:28:55;;;;;;;;;1.50;1.50;;;;;;;;5099536;27;45141;-41
2023/08/03 01:31:20;;;;;;;;;1.25;1.25;;;;;;;;5101079;27;45419;-41
2023/08/03 01:33:45;;;;;;;;;3.50;2.00;;;;;;;;5075001;27;46438;-41
2023/08/03 01:36:10;;;;;;;;;2.50;1.00;;;;;;;;5078467;27;45265;-42
2023/08/03 01:38:35;;;;;;;;;5.75;2.75;;;;;;;;5080500;28;45291;-42
2023/08/03 01:41:01;;;;;;;;;6.00;2.25;;;;;;;;5080685;27;45351;-40
2023/08/03 01:43:27;;;;;;;;;6.00;1.50;;;;;;;;5080136;28;45466;-40
2023/08/03 01:45:52;;;;;;;;;2.00;1.50;;;;;;;;5079525;28;45497;-42
2023/08/03 01:48:17;;;;;;;;;6.50;1.75;;;;;;;;5080426;28;45442;-46
2023/08/03 01:50:42;;;;;;;;;2.25;2.25;;;;;;;;5080383;28;45343;-42
2023/08/03 01:53:07;;;;;;;;;5.00;1.50;;;;;;;;5080157;28;45445;-42
2023/08/03 01:55:32;;;;;;;;;5.25;1.00;;;;;;;;5080060;27;45302;-42
2023/08/03 01:57:58;;;;;;;;;5.25;2.50;;;;;;;;5080269;28;45383;-41
2023/08/03 02:00:24;;;;;;;;;3.00;1.50;;;;;;;;5080536;27;45287;-42
2023/08/03 02:02:51;;;;;;;;;3.50;1.25;;;;;;;;5079121;28;45379;-41
2023/08/03 02:05:16;;;;;;;;;3.50;2.50;;;;;;;;5079960;28;45339;-41
2023/08/03 02:07:41;;;;;;;;;0.75;0.75;;;;;;;;5080123;28;46144;-42
2023/08/03 02:10:07;;;;;;;;;0.00;0.00;;;;;;;;5079503;27;45513;-42
2023/08/03 02:12:32;;;;;;;;;3.25;1.00;;;;;;;;5079772;27;45622;-41
2023/08/03 02:14:57;;;;;;;;;4.00;1.00;;;;;;;;5079734;28;45358;-41
2023/08/03 02:17:22;;;;;;;;;1.00;1.00;;;;;;;;5077952;27;45470;-42
2023/08/03 02:19:48;;;;;;;;;2.00;2.00;;;;;;;;5080138;28;45300;-42
2023/08/03 02:22:13;;;;;;;;;2.50;1.25;;;;;;;;5079683;28;47134;-42
2023/08/03 02:24:38;;;;;;;;;4.50;1.00;;;;;;;;5061539;28;45235;-41
2023/08/03 02:27:03;;;;;;;;;2.00;0.00;;;;;;;;5079571;28;45240;-42
2023/08/03 02:29:28;;;;;;;;;1.00;0.50;;;;;;;;5077776;27;45273;-47
2023/08/03 02:31:54;;;;;;;;;1.25;1.25;;;;;;;;5079594;27;45430;-42
2023/08/03 02:34:19;;;;;;;;;1.00;0.50;;;;;;;;5079631;27;45404;-41
2023/08/03 02:36:45;;;;;;;;;0.25;0.00;;;;;;;;5061632;28;45374;-46
2023/08/03 02:39:13;;;;;;;;;4.00;2.00;;;;;;;;5079376;27;45448;-41
2023/08/03 02:41:38;;;;;;;;;0.25;0.25;;;;;;;;5078729;28;46604;-42
2023/08/03 02:44:04;;;;;;;;;4.00;1.25;;;;;;;;5079287;27;45465;-42
2023/08/03 02:46:30;;;;;;;;;2.50;2.25;;;;;;;;5079609;28;45412;-42
2023/08/03 02:48:55;;;;;;;;;2.25;2.00;;;;;;;;5078876;28;45536;-42
2023/08/03 02:51:20;;;;;;;;;0.75;0.75;;;;;;;;5078855;28;45442;-41
2023/08/03 02:53:46;;;;;;;;;1.75;1.25;;;;;;;;5079074;28;45327;-41
2023/08/03 02:56:11;;;;;;;;;2.00;1.00;;;;;;;;5079010;27;45474;-45
2023/08/03 02:58:36;;;;;;;;;4.75;2.25;;;;;;;;5079513;28;45291;-41
2023/08/03 03:01:02;;;;;;;;;1.00;1.00;;;;;;;;5078980;27;45411;-46
2023/08/03 03:03:28;;;;;;;;;0.00;0.00;;;;;;;;5078919;27;45283;-43
2023/08/03 03:05:53;;;;;;;;;2.00;1.00;;;;;;;;5079115;27;45357;-41
2023/08/03 03:08:19;;;;;;;;;2.00;1.00;;;;;;;;5078967;27;45385;-40
2023/08/03 03:10:44;;;;;;;;;2.00;0.50;;;;;;;;5078446;27;46314;-40
2023/08/03 03:13:09;;;;;;;;;5.00;2.00;;;;;;;;5078493;27;45170;-40
2023/08/03 03:15:34;;;;;;;;;3.00;1.25;;;;;;;;5078834;28;45372;-41
2023/08/03 03:17:59;;;;;;;;;2.50;0.75;;;;;;;;5079099;28;45220;-41
2023/08/03 03:20:25;;;;;;;;;1.50;1.50;;;;;;;;5078698;27;45535;-41
2023/08/03 03:22:50;;;;;;;;;2.00;0.00;;;;;;;;5078772;28;45446;-41
2023/08/03 03:25:15;;;;;;;;;1.00;1.00;;;;;;;;5078633;28;45378;-41
2023/08/03 03:27:40;;;;;;;;;1.00;1.00;;;;;;;;5078644;28;45287;-42
2023/08/03 03:30:06;;;;;;;;;3.00;1.75;;;;;;;;5078500;27;47213;-41
2023/08/03 03:32:31;;;;;;;;;1.00;0.50;;;;;;;;5078445;28;45149;-41
2023/08/03 03:34:56;;;;;;;;;1.75;1.00;;;;;;;;5095628;27;45163;-41
2023/08/03 03:37:21;;;;;;;;;1.75;1.00;;;;;;;;5099078;27;45322;-41
2023/08/03 03:39:47;;;;;;;;;1.00;1.00;;;;;;;;5098797;27;46237;-40
2023/08/03 03:42:12;;;;;;;;;0.00;0.00;;;;;;;;5098847;27;45382;-40
2023/08/03 03:44:37;;;;;;;;;2.25;2.25;;;;;;;;5098777;27;45316;-41
2023/08/03 03:47:02;;;;;;;;;2.50;0.75;;;;;;;;5099021;27;45406;-40
2023/08/03 03:49:28;;;;;;;;;2.00;1.00;;;;;;;;5098432;27;46236;-41
2023/08/03 03:51:53;;;;;;;;;1.00;1.00;;;;;;;;5098469;27;45328;-40
2023/08/03 03:54:18;;;;;;;;;2.00;0.00;;;;;;;;5098822;27;45253;-41
2023/08/03 03:56:43;;;;;;;;;1.25;1.00;;;;;;;;5098853;27;45302;-41
2023/08/03 03:59:09;;;;;;;;;2.00;1.00;;;;;;;;5098447;27;46025;-41
2023/08/03 04:01:34;;;;;;;;;2.00;1.00;;;;;;;;5098366;27;45390;-42
2023/08/03 04:04:00;;;;;;;;;2.25;1.00;;;;;;;;5098520;27;45318;-41
2023/08/03 04:06:25;;;;;;;;;0.25;0.00;;;;;;;;5098827;27;45446;-39
2023/08/03 04:08:50;;;;;;;;;2.00;0.50;;;;;;;;5097972;27;46635;-41
2023/08/03 04:11:15;;;;;;;;;5.75;1.00;;;;;;;;5098167;27;45287;-41
2023/08/03 04:13:40;;;;;;;;;1.00;1.00;;;;;;;;5098491;27;45496;-41
2023/08/03 04:16:06;;;;;;;;;2.25;2.00;;;;;;;;5098751;27;45347;-41
2023/08/03 04:18:31;;;;;;;;;1.25;1.00;;;;;;;;5098125;27;46174;-41
2023/08/03 04:20:56;;;;;;;;;3.75;1.00;;;;;;;;5097869;27;45305;-41
2023/08/03 04:23:22;;;;;;;;;2.00;2.00;;;;;;;;5098247;27;45451;-41
2023/08/03 04:25:47;;;;;;;;;3.00;1.00;;;;;;;;5098429;27;45384;-41
2023/08/03 04:28:12;;;;;;;;;2.00;1.00;;;;;;;;5097858;27;46356;-42
2023/08/03 04:30:37;;;;;;;;;3.00;1.50;;;;;;;;5098104;27;45246;-42
2023/08/03 04:33:02;;;;;;;;;1.75;1.75;;;;;;;;5097884;27;45346;-41
2023/08/03 04:35:28;;;;;;;;;3.00;1.50;;;;;;;;5098076;27;45237;-41
2023/08/03 04:37:53;;;;;;;;;1.50;1.00;;;;;;;;5097937;27;46041;-41
2023/08/03 04:40:18;;;;;;;;;3.00;1.25;;;;;;;;5097880;27;45200;-41
2023/08/03 04:42:43;;;;;;;;;2.50;1.00;;;;;;;;5098117;27;45294;-40
2023/08/03 04:45:08;;;;;;;;;1.25;1.00;;;;;;;;5098368;27;45472;-42
2023/08/03 04:47:34;;;;;;;;;2.00;1.00;;;;;;;;5097505;27;46095;-41
2023/08/03 04:49:59;;;;;;;;;3.00;2.00;;;;;;;;5097811;27;45526;-42
2023/08/03 04:52:24;;;;;;;;;3.50;1.25;;;;;;;;5098036;27;45353;-42
2023/08/03 04:54:49;;;;;;;;;4.00;2.00;;;;;;;;5097834;27;45210;-40
2023/08/03 04:57:15;;;;;;;;;2.00;1.00;;;;;;;;5097550;27;45851;-40
2023/08/03 04:59:40;;;;;;;;;2.25;2.00;;;;;;;;5097867;27;45517;-41
2023/08/03 05:02:06;;;;;;;;;1.50;0.00;;;;;;;;5097799;27;45266;-40
2023/08/03 05:04:31;;;;;;;;;3.00;1.75;;;;;;;;5104319;27;45550;-41
2023/08/03 05:06:56;;;;;;;;;2.50;1.00;;;;;;;;5104005;27;47185;-40
2023/08/03 05:09:21;;;;;;;;;0.25;0.00;;;;;;;;5104329;27;45236;-39
2023/08/03 05:11:46;;;;;;;;;5.00;2.00;;;;;;;;5104372;27;45314;-39
2023/08/03 05:14:12;;;;;;;;;1.00;1.00;;;;;;;;5104530;27;45481;-41
2023/08/03 05:16:37;;;;;;;;;3.75;1.75;;;;;;;;5104221;27;46027;-42
2023/08/03 05:19:02;;;;;;;;;4.00;2.50;;;;;;;;5104202;27;45442;-41
2023/08/03 05:21:27;;;;;;;;;1.25;0.75;;;;;;;;5104624;27;45297;-41
2023/08/03 05:23:52;;;;;;;;;3.25;2.50;;;;;;;;5104375;27;45334;-41
2023/08/03 05:26:18;;;;;;;;;2.25;2.00;;;;;;;;5104134;27;46378;-41
2023/08/03 05:28:43;;;;;;;;;1.00;1.00;;;;;;;;5104158;27;45397;-40
2023/08/03 05:31:08;;;;;;;;;2.75;1.00;;;;;;;;5104065;27;45298;-41
2023/08/03 05:33:34;;;;;;;;;1.50;1.50;;;;;;;;5104427;27;45308;-41
2023/08/03 05:36:00;;;;;;;;;4.75;2.00;;;;;;;;5102977;27;45341;-40
2023/08/03 05:38:25;;;;;;;;;2.25;2.00;;;;;;;;5103978;27;45351;-40
2023/08/03 05:40:50;;;;;;;;;1.00;1.00;;;;;;;;5104140;27;45373;-40
2023/08/03 05:43:15;;;;;;;;;0.75;0.75;;;;;;;;5104155;27;45278;-40
2023/08/03 05:45:45;;;;;;;;;3.00;2.00;;;;;;;;5103883;27;46972;-41
2023/08/03 05:48:20;;;;;;;;;1.00;1.00;;;;;;;;5103852;27;45275;-41
2023/08/03 05:50:49;;;;;;;;;1.75;1.25;;;;;;;;5103857;27;45403;-41
2023/08/03 05:53:14;;;;;;;;;4.00;2.00;;;;;;;;5104014;27;45464;-42
2023/08/03 05:55:40;;;;;;;;;1.75;1.75;;;;;;;;5103533;27;46041;-40
2023/08/03 05:58:06;;;;;;;;;1.00;1.00;;;;;;;;5103568;27;45263;-41
2023/08/03 06:00:31;;;;;;;;;4.50;1.00;;;;;;;;5103826;27;45391;-41
2023/08/03 06:02:57;;;;;;;;;3.50;3.00;;;;;;;;5103826;27;45331;-42
2023/08/03 06:05:38;;;;;;;;;4.00;2.25;;;;;;;;5103568;27;46478;-41
2023/08/03 06:08:09;;;;;;;;;5.80;1.80;;;;;;;;5103630;27;45268;-41
2023/08/03 06:10:34;;;;;;;;;0.75;0.75;;;;;;;;5103627;27;45220;-41
2023/08/03 06:12:59;;;;;;;;;1.25;1.25;;;;;;;;5103072;27;45428;-42
2023/08/03 06:15:25;;;;;;;;;1.75;1.00;;;;;;;;5100855;27;45368;-42
2023/08/03 06:17:50;;;;;;;;;2.00;1.25;;;;;;;;5100016;27;45490;-42
2023/08/03 06:20:22;;;;;;;;;5.00;2.50;;;;;;;;5100315;27;45212;-42
2023/08/03 06:22:47;;;;;;;;;5.25;2.25;;;;;;;;5100432;27;45514;-41
2023/08/03 06:25:12;;;;;;;;;3.75;2.00;;;;;;;;5099966;27;46403;-41
2023/08/03 06:27:39;;;;;;;;;3.50;1.75;;;;;;;;5100091;27;45189;-41
2023/08/03 06:30:05;;;;;;;;;4.50;1.25;;;;;;;;5100137;27;45362;-40
2023/08/03 06:32:31;;;;;;;;;3.50;1.00;;;;;;;;5100396;27;45234;-41
2023/08/03 06:34:57;;;;;;;;;9.00;1.00;;;;;;;;5099768;27;45232;-42
2023/08/03 06:37:22;;;;;;;;;4.00;2.50;;;;;;;;5099796;27;45456;-41
2023/08/03 06:39:53;;;;;;;;;4.00;2.00;;;;;;;;5100062;27;45226;-41
2023/08/03 06:42:18;;;;;;;;;3.00;1.00;;;;;;;;5100041;27;45541;-41
2023/08/03 06:44:43;;;;;;;;;3.50;3.00;;;;;;;;5099419;27;45318;-41
2023/08/03 06:47:08;;;;;;;;;3.00;1.75;;;;;;;;5099581;27;45392;-41
2023/08/03 06:49:34;;;;;;;;;4.50;1.50;;;;;;;;5099666;27;45438;-41
2023/08/03 06:51:59;;;;;;;;;5.50;2.00;;;;;;;;5100103;27;45363;-41
2023/08/03 06:54:25;;;;;;;;;4.00;1.00;;;;;;;;5099567;27;45355;-40
2023/08/03 06:56:50;;;;;;;;;1.50;1.00;;;;;;;;5099319;27;45233;-42
2023/08/03 06:59:20;;;;;;;;;2.00;2.00;;;;;;;;5081291;27;45409;-42
2023/08/03 07:01:46;;;;;;;;;2.00;2.00;;;;;;;;5099636;27;45414;-41
2023/08/03 07:04:11;;;;;;;;;1.50;1.50;;;;;;;;5099349;27;45360;-42
2023/08/03 07:06:36;;;;;;;;;3.25;1.50;;;;;;;;5099501;27;45398;-43
2023/08/03 07:09:02;;;;;;;;;5.00;2.75;;;;;;;;5080967;27;45420;-42
2023/08/03 07:11:27;;;;;;;;;1.00;1.00;;;;;;;;5098995;27;45501;-42
2023/08/03 07:13:52;;;;;;;;;1.75;1.25;;;;;;;;5099122;27;45382;-42
2023/08/03 07:16:17;;;;;;;;;3.50;2.75;;;;;;;;5099482;27;45443;-42
2023/08/03 07:18:43;;;;;;;;;3.00;2.25;;;;;;;;5099298;27;45223;-41
2023/08/03 07:21:08;;;;;;;;;4.25;3.00;;;;;;;;5099373;27;45411;-41
2023/08/03 07:23:34;;;;;;;;;3.00;2.00;;;;;;;;5099156;27;45290;-42
2023/08/03 07:25:59;;;;;;;;;3.20;2.00;;;;;;;;5098452;27;45382;-42
2023/08/03 07:28:24;;;;;;;;;2.00;2.00;;;;;;;;5099026;27;45283;-42
2023/08/03 07:30:49;;;;;;;;;2.50;1.75;;;;;;;;5099292;27;45382;-41
2023/08/03 07:33:15;;;;;;;;;2.00;2.00;;;;;;;;5098616;27;45973;-40
2023/08/03 07:35:40;;;;;;;;;3.00;3.00;;;;;;;;5099216;27;45457;-40
2023/08/03 07:38:05;;;;;;;;;2.00;2.00;;;;;;;;5099024;27;45461;-41
2023/08/03 07:40:30;;;;;;;;;1.25;1.25;;;;;;;;5099157;27;45449;-41
2023/08/03 07:42:56;;;;;;;;;4.50;2.00;;;;;;;;5098707;27;46007;-42
2023/08/03 07:45:21;;;;;;;;;3.75;2.25;;;;;;;;5080185;27;45355;-41
2023/08/03 07:47:46;;;;;;;;;2.00;2.00;;;;;;;;5098837;27;45420;-40
2023/08/03 07:50:11;;;;;;;;;4.00;1.75;;;;;;;;5098973;27;45556;-40
2023/08/03 07:52:36;;;;;;;;;3.75;2.25;;;;;;;;5098615;27;46097;-40
2023/08/03 07:55:02;;;;;;;;;3.00;3.00;;;;;;;;5098603;27;45306;-41
2023/08/03 07:57:27;;;;;;;;;4.50;3.00;;;;;;;;5098657;27;45378;-41
2023/08/03 07:59:52;;;;;;;;;4.50;2.00;;;;;;;;5098611;27;45565;-42
2023/08/03 08:02:18;;;;;;;;;4.50;3.75;;;;;;;;5098217;27;46555;-41
2023/08/03 08:04:43;;;;;;;;;4.00;2.50;;;;;;;;5098643;27;45346;-40
2023/08/03 08:07:08;;;;;;;;;6.00;2.75;;;;;;;;5098247;27;45410;-40
2023/08/03 08:09:33;;;;;;;;;5.25;2.00;;;;;;;;5079751;27;45374;-41
2023/08/03 08:11:59;;;;;;;;;5.00;2.00;;;;;;;;5098306;27;46020;-41
2023/08/03 08:14:24;;;;;;;;;5.75;2.00;;;;;;;;5098183;27;45285;-41
2023/08/03 08:16:49;;;;;;;;;4.00;2.00;;;;;;;;5098831;27;45377;-42
2023/08/03 08:19:14;;;;;;;;;5.00;1.50;;;;;;;;5098288;27;45346;-43
2023/08/03 08:21:39;;;;;;;;;3.75;2.00;;;;;;;;5098133;27;45980;-42
2023/08/03 08:24:05;;;;;;;;;4.00;2.00;;;;;;;;5098318;27;45363;-42
2023/08/03 08:26:31;;;;;;;;;2.75;1.00;;;;;;;;5098468;27;45304;-42
2023/08/03 08:28:58;;;;;;;;;0.00;0.00;;;;;;;;5098143;27;45440;-41
2023/08/03 08:31:24;;;;;;;;;4.00;2.00;;;;;;;;5097861;27;47047;-41
2023/08/03 08:33:49;;;;;;;;;3.25;1.00;;;;;;;;5097510;27;45268;-41
2023/08/03 08:36:14;;;;;;;;;1.75;1.75;;;;;;;;5098267;27;45318;-41
2023/08/03 08:38:40;;;;;;;;;2.50;1.00;;;;;;;;5097163;27;45501;-42
2023/08/03 08:41:05;;;;;;;;;4.50;3.50;;;;;;;;5097724;27;46095;-42
2023/08/03 08:43:30;;;;;;;;;2.00;2.00;;;;;;;;5097768;27;45227;-42
2023/08/03 08:45:55;;;;;;;;;2.25;1.00;;;;;;;;5098230;27;45283;-42
2023/08/03 08:48:21;;;;;;;;;2.00;1.25;;;;;;;;5097864;27;45345;-42
2023/08/03 08:50:49;;;;;;;;;2.00;2.00;;;;;;;;5097602;27;45467;-42
2023/08/03 08:53:14;;;;;;;;;3.75;3.50;;;;;;;;5097664;27;45327;-42
2023/08/03 08:55:39;;;;;;;;;3.00;3.00;;;;;;;;5097859;27;45228;-41
2023/08/03 08:58:05;;;;;;;;;2.00;2.00;;;;;;;;5097943;27;45371;-40
2023/08/03 09:00:39;;;;;;;;;3.00;2.25;;;;;;;;5097427;27;46038;-41
2023/08/03 09:03:05;;;;;;;;;2.00;2.00;;;;;;;;5097449;27;45336;-42
2023/08/03 09:05:30;;;;;;;;;2.00;2.00;;;;;;;;5097830;27;45256;-39
2023/08/03 09:08:04;;;;;;;;;2.00;2.00;;;;;;;;5097674;27;45432;-41
2023/08/03 09:10:30;;;;;;;;;1.25;1.25;;;;;;;;5097285;27;46252;-41
2023/08/03 09:12:56;;;;;;;;;1.00;1.00;;;;;;;;5097432;27;45490;-43
2023/08/03 09:15:37;;;;;;;;;2.25;2.00;;;;;;;;5097610;27;45452;-42
2023/08/03 09:18:03;;;;;;;;;4.50;1.50;;;;;;;;5097595;27;45448;-41
2023/08/03 09:20:28;;;;;;;;;5.00;2.00;;;;;;;;5097129;27;45371;-40
2023/08/03 09:22:53;;;;;;;;;3.00;1.75;;;;;;;;5097186;27;45478;-41
2023/08/03 09:25:19;;;;;;;;;2.00;2.00;;;;;;;;5097466;27;45465;-41
2023/08/03 09:27:51;;;;;;;;;4.75;2.00;;;;;;;;5097241;27;45374;-41
2023/08/03 09:30:17;;;;;;;;;4.75;3.00;;;;;;;;5097168;27;46132;-41
2023/08/03 09:32:42;;;;;;;;;7.25;4.25;;;;;;;;5097293;27;45226;-41
2023/08/03 09:35:16;;;;;;;;;6.00;3.00;;;;;;;;5097058;27;45224;-40
2023/08/03 09:37:42;;;;;;;;;5.50;2.75;;;;;;;;5097325;27;45395;-41
2023/08/03 09:40:07;;;;;;;;;3.00;1.25;;;;;;;;5097064;27;46171;-41
2023/08/03 09:42:33;;;;;;;;;4.75;2.75;;;;;;;;5097137;27;45312;-40
2023/08/03 09:45:01;;;;;;;;;2.00;1.00;;;;;;;;5097252;27;45443;-42
2023/08/03 09:47:26;;;;;;;;;2.25;2.00;;;;;;;;5097534;27;45426;-41
2023/08/03 09:49:52;;;;;;;;;2.00;2.00;;;;;;;;5098786;27;46186;-42
2023/08/03 09:52:21;;;;;;;;;3.00;3.00;;;;;;;;5082364;27;45420;-41
2023/08/03 09:54:56;;;;;;;;;4.20;3.00;;;;;;;;5100879;27;45419;-42
2023/08/03 09:57:27;;;;;;;;;3.25;1.00;;;;;;;;5101007;27;45295;-40
2023/08/03 09:59:55;;;;;;;;;1.40;1.40;;;;;;;;5100079;27;47417;-42
2023/08/03 10:02:22;;;;;;;;;1.80;1.80;;;;;;;;5100546;27;45304;-40
2023/08/03 10:04:50;;;;;;;;;3.60;1.60;;;;;;;;5099655;27;45164;-41
2023/08/03 10:07:17;;;;;;;;;3.00;2.00;;;;;;;;5100694;27;45294;-42
2023/08/03 10:09:43;;;;;;;;;3.80;2.20;;;;;;;;5100556;27;47127;-41
2023/08/03 10:12:12;;;;;;;;;1.00;1.00;;;;;;;;5100121;27;45378;-42
2023/08/03 10:14:40;;;;;;;;;1.00;1.00;;;;;;;;5100465;27;45361;-41
2023/08/03 10:17:07;;;;;;;;;0.25;0.25;;;;;;;;5100512;27;45350;-42
2023/08/03 10:19:33;;;;;;;;;4.80;3.80;;;;;;;;5099988;27;47215;-41
2023/08/03 10:21:58;;;;;;;;;2.00;2.00;;;;;;;;5099518;27;45259;-41
2023/08/03 10:24:24;;;;;;;;;1.00;1.00;;;;;;;;5100146;27;45177;-40
2023/08/03 10:26:56;;;;;;;;;0.50;0.50;;;;;;;;5100299;27;45428;-41
2023/08/03 10:29:40;;;;;;;;;2.60;1.00;;;;;;;;5099677;27;47129;-42
2023/08/03 10:32:06;;;;;;;;;4.00;2.20;;;;;;;;5100226;27;45267;-41
2023/08/03 10:34:32;;;;;;;;;2.80;2.00;;;;;;;;5099946;27;45675;-41
2023/08/03 10:36:57;;;;;;;;;2.50;1.00;;;;;;;;5100447;27;45423;-40
2023/08/03 10:39:41;;;;;;;;;3.00;2.00;;;;;;;;5099271;27;46037;-41
2023/08/03 10:42:20;;;;;;;;;3.80;1.20;;;;;;;;5099821;27;45350;-43
2023/08/03 10:44:45;;;;;;;;;2.00;0.80;;;;;;;;5099622;27;45164;-42
2023/08/03 10:47:23;;;;;;;;;1.00;1.00;;;;;;;;5100021;27;45267;-42
2023/08/03 10:49:49;;;;;;;;;2.00;2.00;;;;;;;;5099443;27;46385;-41
2023/08/03 10:52:18;;;;;;;;;5.40;1.40;;;;;;;;5099552;27;45562;-41
2023/08/03 10:54:44;;;;;;;;;2.00;2.00;;;;;;;;5099926;27;45389;-41
2023/08/03 10:57:13;;;;;;;;;4.25;2.00;;;;;;;;5099692;27;45167;-41
2023/08/03 10:59:39;;;;;;;;;5.00;2.00;;;;;;;;5099278;27;46114;-41
2023/08/03 11:02:37;;;;;;;;;1.00;1.00;;;;;;;;5098698;27;45525;-40
2023/08/03 11:05:04;;;;;;;;;2.00;2.00;;;;;;;;4996694;28;45465;-42
2023/08/03 11:07:32;;;;;;;;;3.00;1.00;;;;;;;;4996890;28;45390;-47
2023/08/03 11:09:57;;;;;;;;;1.60;1.00;;;;;;;;4996230;28;46444;-41
2023/08/03 11:12:23;;;;;;;;;4.00;1.00;;;;;;;;4996709;28;45396;-40
2023/08/03 11:14:50;;;;;;;;;1.80;1.80;;;;;;;;4996326;28;45488;-42
2023/08/03 11:17:16;;;;;;;;;1.75;1.75;;;;;;;;4996589;28;45448;-40
2023/08/03 11:19:42;;;;;;;;;1.50;1.00;;;;;;;;4996307;28;46319;-42
2023/08/03 11:22:08;;;;;;;;;1.00;1.00;;;;;;;;4996131;28;45466;-41
2023/08/03 11:24:33;;;;;;;;;1.00;1.00;;;;;;;;4995326;28;45358;-42
2023/08/03 11:26:59;;;;;;;;;1.75;1.75;;;;;;;;4996439;28;45199;-41
2023/08/03 11:29:24;;;;;;;;;1.00;1.00;;;;;;;;4995792;28;46307;-41
2023/08/03 11:31:50;;;;;;;;;1.25;1.25;;;;;;;;4996175;28;45305;-41
2023/08/03 11:34:15;;;;;;;;;3.00;2.25;;;;;;;;4996021;28;45340;-43
2023/08/03 11:36:46;;;;;;;;;0.00;0.00;;;;;;;;4996522;28;45322;-41
2023/08/03 11:39:11;;;;;;;;;1.00;0.00;;;;;;;;4996143;28;45584;-42
2023/08/03 11:41:37;;;;;;;;;2.75;0.00;;;;;;;;5070205;28;45450;-42
2023/08/03 11:44:03;;;;;;;;;3.25;1.75;;;;;;;;5078579;28;45398;-41
2023/08/03 11:46:28;;;;;;;;;2.00;1.75;;;;;;;;5078726;28;45462;-42
2023/08/03 11:48:57;;;;;;;;;1.75;1.00;;;;;;;;5078275;28;46876;-42
2023/08/03 11:51:31;;;;;;;;;1.00;1.00;;;;;;;;5078312;28;45272;-41
2023/08/03 11:54:00;;;;;;;;;1.00;0.60;;;;;;;;5078483;28;45431;-42
2023/08/03 11:56:25;;;;;;;;;0.00;0.00;;;;;;;;5060502;28;45370;-41
2023/08/03 11:58:50;;;;;;;;;1.50;0.75;;;;;;;;5078197;28;46226;-41
2023/08/03 12:01:15;;;;;;;;;1.00;1.00;;;;;;;;5059781;28;45738;-41
2023/08/03 12:03:41;;;;;;;;;1.00;1.00;;;;;;;;5078388;28;45371;-41
2023/08/03 12:06:09;;;;;;;;;3.00;2.00;;;;;;;;5078306;28;45437;-39
2023/08/03 12:08:41;;;;;;;;;2.00;2.00;;;;;;;;5059535;28;46222;-39
2023/08/03 12:11:06;;;;;;;;;2.80;1.00;;;;;;;;5078121;28;45357;-42
2023/08/03 12:13:31;;;;;;;;;0.75;0.50;;;;;;;;5077987;28;45421;-41
2023/08/03 12:15:57;;;;;;;;;1.25;1.00;;;;;;;;5078007;28;45311;-40
2023/08/03 12:18:23;;;;;;;;;2.00;1.00;;;;;;;;5078018;28;46316;-41
2023/08/03 12:20:49;;;;;;;;;1.75;1.75;;;;;;;;5077915;28;45513;-40
2023/08/03 12:23:15;;;;;;;;;1.40;1.00;;;;;;;;5077788;28;45268;-41
2023/08/03 12:25:40;;;;;;;;;2.75;1.00;;;;;;;;5077884;28;45303;-41
2023/08/03 12:28:05;;;;;;;;;1.25;0.75;;;;;;;;5077709;28;45204;-41
2023/08/03 12:30:30;;;;;;;;;0.00;0.00;;;;;;;;5077690;28;45443;-41
2023/08/03 12:32:56;;;;;;;;;0.00;0.00;;;;;;;;5077912;28;45224;-42
2023/08/03 12:35:21;;;;;;;;;1.00;1.00;;;;;;;;5096642;27;45355;-42
2023/08/03 12:37:46;;;;;;;;;1.75;1.00;;;;;;;;5098057;27;47297;-41
2023/08/03 12:40:12;;;;;;;;;2.75;1.00;;;;;;;;5098124;27;45413;-41
2023/08/03 12:42:38;;;;;;;;;0.00;0.00;;;;;;;;5098108;27;45310;-41
2023/08/03 12:45:03;;;;;;;;;0.00;0.00;;;;;;;;5098204;27;45517;-42
2023/08/03 12:47:29;;;;;;;;;1.00;1.00;;;;;;;;5097914;27;46026;-41
2023/08/03 12:49:57;;;;;;;;;1.00;1.00;;;;;;;;5115694;27;45471;-41
2023/08/03 12:52:22;;;;;;;;;1.00;1.00;;;;;;;;5118500;27;45262;-41
2023/08/03 12:54:48;;;;;;;;;1.00;1.00;;;;;;;;5118651;27;45309;-41
2023/08/03 12:57:13;;;;;;;;;1.25;1.25;;;;;;;;5118216;27;46195;-41
2023/08/03 12:59:38;;;;;;;;;2.00;0.75;;;;;;;;5118514;27;45288;-41
2023/08/03 13:02:03;;;;;;;;;1.50;1.00;;;;;;;;5118197;27;45446;-42
2023/08/03 13:04:28;;;;;;;;;1.00;1.00;;;;;;;;5118592;27;45367;-41
2023/08/03 13:06:54;;;;;;;;;1.00;1.00;;;;;;;;5118332;27;47104;-40
2023/08/03 13:09:19;;;;;;;;;1.00;1.00;;;;;;;;5118242;27;45320;-42
2023/08/03 13:11:44;;;;;;;;;0.75;0.75;;;;;;;;5118384;27;45289;-41
2023/08/03 13:14:09;;;;;;;;;1.00;1.00;;;;;;;;5118347;27;45471;-40
2023/08/03 13:16:34;;;;;;;;;0.75;0.75;;;;;;;;5118232;27;46089;-42
2023/08/03 13:19:00;;;;;;;;;1.50;0.75;;;;;;;;5117939;27;45344;-41
2023/08/03 13:21:25;;;;;;;;;3.00;1.00;;;;;;;;5118275;27;45392;-42
2023/08/03 13:23:50;;;;;;;;;2.00;2.00;;;;;;;;5118715;27;45221;-42
2023/08/03 13:26:16;;;;;;;;;3.25;1.50;;;;;;;;5121579;27;46054;-42
2023/08/03 13:28:41;;;;;;;;;1.00;0.00;;;;;;;;5121698;27;45432;-41
2023/08/03 13:31:06;;;;;;;;;1.50;1.50;;;;;;;;5121677;27;45282;-42
2023/08/03 13:33:31;;;;;;;;;0.00;0.00;;;;;;;;5121799;27;45319;-41
2023/08/03 13:35:56;;;;;;;;;0.00;0.00;;;;;;;;5121299;27;45231;-41
2023/08/03 13:38:22;;;;;;;;;0.25;0.25;;;;;;;;5121441;27;45288;-41
2023/08/03 13:40:47;;;;;;;;;0.00;0.00;;;;;;;;5121483;27;45289;-41
2023/08/03 13:43:14;;;;;;;;;0.50;0.00;;;;;;;;5121811;27;45205;-41
2023/08/03 13:45:39;;;;;;;;;2.80;0.00;;;;;;;;5121078;27;45166;-41
2023/08/03 13:48:04;;;;;;;;;1.00;1.00;;;;;;;;5121272;27;45454;-42
2023/08/03 13:50:30;;;;;;;;;0.50;0.50;;;;;;;;5121361;27;45423;-41
2023/08/03 13:52:55;;;;;;;;;0.00;0.00;;;;;;;;5121465;27;45418;-41
2023/08/03 13:55:20;;;;;;;;;0.25;0.00;;;;;;;;5121206;27;46167;-42
2023/08/03 13:57:45;;;;;;;;;0.50;0.50;;;;;;;;5121016;27;45367;-41
2023/08/03 14:00:11;;;;;;;;;1.00;1.00;;;;;;;;5121389;27;45397;-39
2023/08/03 14:02:36;;;;;;;;;1.00;1.00;;;;;;;;5120868;27;45404;-41
2023/08/03 14:05:01;;;;;;;;;1.00;1.00;;;;;;;;5121048;27;45493;-41
2023/08/03 14:07:26;;;;;;;;;1.75;1.00;;;;;;;;5121084;27;45368;-40
2023/08/03 14:09:52;;;;;;;;;2.50;1.50;;;;;;;;5120939;27;45360;-41
2023/08/03 14:12:17;;;;;;;;;2.00;0.00;;;;;;;;5121055;27;45276;-42
2023/08/03 14:14:42;;;;;;;;;2.00;2.00;;;;;;;;5120534;27;46222;-42
2023/08/03 14:17:09;;;;;;;;;1.00;1.00;;;;;;;;5102147;27;45319;-42
2023/08/03 14:19:34;;;;;;;;;2.00;1.40;;;;;;;;5120932;27;45406;-42
2023/08/03 14:21:59;;;;;;;;;1.75;1.75;;;;;;;;5121230;27;45291;-42
2023/08/03 14:24:25;;;;;;;;;1.75;1.75;;;;;;;;5120804;27;45255;-42
2023/08/03 14:26:50;;;;;;;;;2.00;1.00;;;;;;;;5120798;27;45215;-42
2023/08/03 14:29:15;;;;;;;;;2.50;2.50;;;;;;;;5120706;27;45274;-41
2023/08/03 14:31:40;;;;;;;;;3.00;2.00;;;;;;;;5120698;27;45543;-40
2023/08/03 14:34:05;;;;;;;;;2.50;1.50;;;;;;;;5120132;27;45729;-41
2023/08/03 14:36:31;;;;;;;;;3.00;2.00;;;;;;;;5119216;27;45554;-41